Terminal Aerodrome Forecast
Issued by NWS

Home | Current Version | Previous Version | Graphics & Text | Print | Product List | Glossary On
Versions: 1 2 3 4 5 6 7 8 9 10 11 12 13 14 15 16 17 18
000
FTUS41 KCLE 291100 RRA
TAFFDY
TAF
KFDY 291141Z 2912/3012 28005KT P6SM SKC
     FM291700 28006KT P6SM SCT050 BKN080
     FM292200 28008KT P6SM -SHRA VCTS BKN045CB
     FM300100 24004KT P6SM SCT040 BKN100=

USA.gov is the U.S. government's official web portal to all federal, state and local government web resources and services.